sensor_id;sensor_type;location;lat;lon;timestamp;P1;durP1;ratioP1;P2;durP2;ratioP2
17915;SDS011;9083;49.156;8.982;2022-12-18T00:01:46;40.60;;;19.03;;
17915;SDS011;9083;49.156;8.982;2022-12-18T00:04:16;43.00;;;19.70;;
17915;SDS011;9083;49.156;8.982;2022-12-18T00:06:44;57.87;;;22.83;;
17915;SDS011;9083;49.156;8.982;2022-12-18T00:09:11;62.17;;;25.30;;
17915;SDS011;9083;49.156;8.982;2022-12-18T00:11:37;57.37;;;26.47;;
17915;SDS011;9083;49.156;8.982;2022-12-18T00:14:04;58.03;;;22.47;;
17915;SDS011;9083;49.156;8.982;2022-12-18T00:16:30;56.10;;;26.10;;
17915;SDS011;9083;49.156;8.982;2022-12-18T00:18:58;45.67;;;21.00;;
17915;SDS011;9083;49.156;8.982;2022-12-18T00:21:26;47.60;;;22.77;;
17915;SDS011;9083;49.156;8.982;2022-12-18T00:23:53;46.23;;;21.17;;
17915;SDS011;9083;49.156;8.982;2022-12-18T00:26:21;46.57;;;20.80;;
17915;SDS011;9083;49.156;8.982;2022-12-18T00:28:48;43.50;;;21.43;;
17915;SDS011;9083;49.156;8.982;2022-12-18T00:31:15;47.03;;;21.13;;
17915;SDS011;9083;49.156;8.982;2022-12-18T00:33:42;32.90;;;16.20;;
17915;SDS011;9083;49.156;8.982;2022-12-18T00:36:09;38.73;;;19.60;;
17915;SDS011;9083;49.156;8.982;2022-12-18T00:38:38;42.73;;;21.80;;
17915;SDS011;9083;49.156;8.982;2022-12-18T00:41:05;29.47;;;15.10;;
17915;SDS011;9083;49.156;8.982;2022-12-18T00:43:32;29.20;;;14.17;;
17915;SDS011;9083;49.156;8.982;2022-12-18T00:45:57;38.60;;;15.43;;
17915;SDS011;9083;49.156;8.982;2022-12-18T00:48:23;31.17;;;15.83;;
17915;SDS011;9083;49.156;8.982;2022-12-18T00:50:50;32.27;;;15.43;;
17915;SDS011;9083;49.156;8.982;2022-12-18T00:53:17;38.43;;;16.17;;
17915;SDS011;9083;49.156;8.982;2022-12-18T00:55:48;36.47;;;15.13;;
17915;SDS011;9083;49.156;8.982;2022-12-18T00:58:15;30.50;;;15.63;;
17915;SDS011;9083;49.156;8.982;2022-12-18T01:00:42;28.37;;;16.33;;
17915;SDS011;9083;49.156;8.982;2022-12-18T01:03:09;27.70;;;15.20;;
17915;SDS011;9083;49.156;8.982;2022-12-18T01:05:38;44.60;;;18.17;;
17915;SDS011;9083;49.156;8.982;2022-12-18T01:08:05;29.37;;;14.17;;
17915;SDS011;9083;49.156;8.982;2022-12-18T01:10:31;32.87;;;15.93;;
17915;SDS011;9083;49.156;8.982;2022-12-18T01:12:59;34.40;;;16.60;;
17915;SDS011;9083;49.156;8.982;2022-12-18T01:15:26;39.10;;;16.07;;
17915;SDS011;9083;49.156;8.982;2022-12-18T01:17:52;36.23;;;15.67;;
17915;SDS011;9083;49.156;8.982;2022-12-18T01:20:18;28.63;;;13.87;;
17915;SDS011;9083;49.156;8.982;2022-12-18T01:22:45;28.47;;;15.07;;
17915;SDS011;9083;49.156;8.982;2022-12-18T01:25:11;38.90;;;15.73;;
17915;SDS011;9083;49.156;8.982;2022-12-18T01:27:38;34.77;;;14.63;;
17915;SDS011;9083;49.156;8.982;2022-12-18T01:30:06;36.97;;;16.87;;
17915;SDS011;9083;49.156;8.982;2022-12-18T01:32:33;28.93;;;14.33;;
17915;SDS011;9083;49.156;8.982;2022-12-18T01:34:59;43.80;;;19.07;;
17915;SDS011;9083;49.156;8.982;2022-12-18T01:37:26;34.27;;;17.50;;
17915;SDS011;9083;49.156;8.982;2022-12-18T01:39:52;33.30;;;15.97;;
17915;SDS011;9083;49.156;8.982;2022-12-18T01:42:22;44.00;;;16.50;;
17915;SDS011;9083;49.156;8.982;2022-12-18T01:44:53;32.30;;;14.23;;
17915;SDS011;9083;49.156;8.982;2022-12-18T01:47:22;30.43;;;13.13;;
17915;SDS011;9083;49.156;8.982;2022-12-18T01:49:50;33.97;;;14.93;;
17915;SDS011;9083;49.156;8.982;2022-12-18T01:52:17;33.97;;;16.03;;
17915;SDS011;9083;49.156;8.982;2022-12-18T01:54:43;25.47;;;13.30;;
17915;SDS011;9083;49.156;8.982;2022-12-18T01:57:10;36.80;;;15.77;;
17915;SDS011;9083;49.156;8.982;2022-12-18T01:59:37;26.10;;;14.20;;
17915;SDS011;9083;49.156;8.982;2022-12-18T02:02:05;41.33;;;17.87;;
17915;SDS011;9083;49.156;8.982;2022-12-18T02:04:33;35.13;;;16.27;;
17915;SDS011;9083;49.156;8.982;2022-12-18T02:07:03;29.27;;;15.37;;
17915;SDS011;9083;49.156;8.982;2022-12-18T02:09:34;33.40;;;16.10;;
17915;SDS011;9083;49.156;8.982;2022-12-18T02:12:03;43.40;;;17.97;;
17915;SDS011;9083;49.156;8.982;2022-12-18T02:14:33;47.37;;;19.50;;
17915;SDS011;9083;49.156;8.982;2022-12-18T02:17:03;41.97;;;18.57;;
17915;SDS011;9083;49.156;8.982;2022-12-18T02:19:44;39.10;;;21.20;;
17915;SDS011;9083;49.156;8.982;2022-12-18T02:22:18;44.13;;;20.03;;
17915;SDS011;9083;49.156;8.982;2022-12-18T02:24:49;44.17;;;19.30;;
17915;SDS011;9083;49.156;8.982;2022-12-18T02:27:21;47.70;;;21.63;;
17915;SDS011;9083;49.156;8.982;2022-12-18T02:29:49;43.20;;;19.23;;
17915;SDS011;9083;49.156;8.982;2022-12-18T02:32:17;39.90;;;17.70;;
17915;SDS011;9083;49.156;8.982;2022-12-18T02:34:46;43.50;;;19.43;;
17915;SDS011;9083;49.156;8.982;2022-12-18T02:37:14;41.17;;;18.57;;
17915;SDS011;9083;49.156;8.982;2022-12-18T02:39:42;46.63;;;19.93;;
17915;SDS011;9083;49.156;8.982;2022-12-18T02:42:09;30.07;;;16.73;;
17915;SDS011;9083;49.156;8.982;2022-12-18T02:44:43;33.80;;;17.93;;
17915;SDS011;9083;49.156;8.982;2022-12-18T02:47:10;47.80;;;21.67;;
17915;SDS011;9083;49.156;8.982;2022-12-18T02:49:39;44.60;;;21.43;;
17915;SDS011;9083;49.156;8.982;2022-12-18T02:52:11;51.57;;;22.47;;
17915;SDS011;9083;49.156;8.982;2022-12-18T02:54:48;49.43;;;20.67;;
17915;SDS011;9083;49.156;8.982;2022-12-18T02:57:18;39.40;;;19.27;;
17915;SDS011;9083;49.156;8.982;2022-12-18T02:59:49;46.37;;;19.67;;
17915;SDS011;9083;49.156;8.982;2022-12-18T03:02:20;43.80;;;19.40;;
17915;SDS011;9083;49.156;8.982;2022-12-18T03:04:48;43.97;;;20.07;;
17915;SDS011;9083;49.156;8.982;2022-12-18T03:07:18;45.40;;;20.03;;
17915;SDS011;9083;49.156;8.982;2022-12-18T03:09:46;48.57;;;19.00;;
17915;SDS011;9083;49.156;8.982;2022-12-18T03:12:15;42.83;;;20.53;;
17915;SDS011;9083;49.156;8.982;2022-12-18T03:14:53;43.20;;;20.13;;
17915;SDS011;9083;49.156;8.982;2022-12-18T03:17:21;46.70;;;21.33;;
17915;SDS011;9083;49.156;8.982;2022-12-18T03:19:48;41.40;;;20.00;;
17915;SDS011;9083;49.156;8.982;2022-12-18T03:22:15;46.17;;;21.97;;
17915;SDS011;9083;49.156;8.982;2022-12-18T03:24:42;52.57;;;23.40;;
17915;SDS011;9083;49.156;8.982;2022-12-18T03:27:10;47.40;;;21.03;;
17915;SDS011;9083;49.156;8.982;2022-12-18T03:29:38;49.60;;;21.33;;
17915;SDS011;9083;49.156;8.982;2022-12-18T03:32:08;48.93;;;22.47;;
17915;SDS011;9083;49.156;8.982;2022-12-18T03:34:44;47.13;;;20.27;;
17915;SDS011;9083;49.156;8.982;2022-12-18T03:37:13;55.50;;;23.30;;
17915;SDS011;9083;49.156;8.982;2022-12-18T03:39:40;51.03;;;24.37;;
17915;SDS011;9083;49.156;8.982;2022-12-18T03:42:07;45.73;;;21.93;;
17915;SDS011;9083;49.156;8.982;2022-12-18T03:44:36;53.17;;;24.10;;
17915;SDS011;9083;49.156;8.982;2022-12-18T03:50:10;45.67;;;21.93;;
17915;SDS011;9083;49.156;8.982;2022-12-18T03:52:40;48.23;;;22.60;;
17915;SDS011;9083;49.156;8.982;2022-12-18T03:55:09;51.20;;;21.27;;
17915;SDS011;9083;49.156;8.982;2022-12-18T03:57:35;45.53;;;20.80;;
17915;SDS011;9083;49.156;8.982;2022-12-18T04:00:05;56.07;;;23.53;;
17915;SDS011;9083;49.156;8.982;2022-12-18T04:02:31;50.20;;;22.33;;
17915;SDS011;9083;49.156;8.982;2022-12-18T04:05:00;54.53;;;22.70;;
17915;SDS011;9083;49.156;8.982;2022-12-18T04:07:29;53.33;;;22.67;;
17915;SDS011;9083;49.156;8.982;2022-12-18T04:09:56;44.90;;;19.03;;
17915;SDS011;9083;49.156;8.982;2022-12-18T04:12:24;39.17;;;18.47;;
17915;SDS011;9083;49.156;8.982;2022-12-18T04:14:51;53.63;;;22.90;;
17915;SDS011;9083;49.156;8.982;2022-12-18T04:17:17;47.70;;;21.07;;
17915;SDS011;9083;49.156;8.982;2022-12-18T04:19:44;49.17;;;23.77;;
17915;SDS011;9083;49.156;8.982;2022-12-18T04:22:11;51.70;;;22.97;;
17915;SDS011;9083;49.156;8.982;2022-12-18T04:24:38;56.20;;;23.80;;
17915;SDS011;9083;49.156;8.982;2022-12-18T04:27:05;56.77;;;24.97;;
17915;SDS011;9083;49.156;8.982;2022-12-18T04:29:31;66.37;;;28.03;;
17915;SDS011;9083;49.156;8.982;2022-12-18T04:31:58;64.70;;;26.80;;
17915;SDS011;9083;49.156;8.982;2022-12-18T04:34:27;47.40;;;23.07;;
17915;SDS011;9083;49.156;8.982;2022-12-18T04:36:54;54.40;;;24.60;;
17915;SDS011;9083;49.156;8.982;2022-12-18T04:39:20;57.17;;;26.77;;
17915;SDS011;9083;49.156;8.982;2022-12-18T04:41:48;52.43;;;25.00;;
17915;SDS011;9083;49.156;8.982;2022-12-18T04:44:15;63.80;;;24.97;;
17915;SDS011;9083;49.156;8.982;2022-12-18T04:46:41;63.27;;;27.70;;
17915;SDS011;9083;49.156;8.982;2022-12-18T04:49:07;61.60;;;27.17;;
17915;SDS011;9083;49.156;8.982;2022-12-18T04:51:35;58.87;;;25.97;;
17915;SDS011;9083;49.156;8.982;2022-12-18T04:54:02;69.67;;;28.57;;
17915;SDS011;9083;49.156;8.982;2022-12-18T04:56:30;61.00;;;26.13;;
17915;SDS011;9083;49.156;8.982;2022-12-18T04:58:58;52.23;;;25.50;;
17915;SDS011;9083;49.156;8.982;2022-12-18T05:01:24;63.00;;;26.50;;
17915;SDS011;9083;49.156;8.982;2022-12-18T05:03:51;62.43;;;26.67;;
17915;SDS011;9083;49.156;8.982;2022-12-18T05:06:17;59.80;;;27.00;;
17915;SDS011;9083;49.156;8.982;2022-12-18T05:08:44;62.17;;;23.17;;
17915;SDS011;9083;49.156;8.982;2022-12-18T05:11:11;56.97;;;26.43;;
17915;SDS011;9083;49.156;8.982;2022-12-18T05:13:39;52.40;;;21.87;;
17915;SDS011;9083;49.156;8.982;2022-12-18T05:16:07;55.50;;;22.17;;
17915;SDS011;9083;49.156;8.982;2022-12-18T05:18:33;57.20;;;25.23;;
17915;SDS011;9083;49.156;8.982;2022-12-18T05:21:00;60.37;;;24.13;;
17915;SDS011;9083;49.156;8.982;2022-12-18T05:23:27;63.93;;;25.57;;
17915;SDS011;9083;49.156;8.982;2022-12-18T05:25:54;67.30;;;25.13;;
17915;SDS011;9083;49.156;8.982;2022-12-18T05:28:21;56.67;;;23.83;;
17915;SDS011;9083;49.156;8.982;2022-12-18T05:30:48;52.70;;;22.40;;
17915;SDS011;9083;49.156;8.982;2022-12-18T05:33:17;61.17;;;25.20;;
17915;SDS011;9083;49.156;8.982;2022-12-18T05:35:43;54.93;;;24.53;;
17915;SDS011;9083;49.156;8.982;2022-12-18T05:38:10;55.13;;;23.03;;
17915;SDS011;9083;49.156;8.982;2022-12-18T05:40:36;59.67;;;25.33;;
17915;SDS011;9083;49.156;8.982;2022-12-18T05:43:02;51.83;;;25.33;;
17915;SDS011;9083;49.156;8.982;2022-12-18T05:45:29;57.37;;;24.80;;
17915;SDS011;9083;49.156;8.982;2022-12-18T05:47:55;54.93;;;24.67;;
17915;SDS011;9083;49.156;8.982;2022-12-18T05:50:23;55.93;;;21.47;;
17915;SDS011;9083;49.156;8.982;2022-12-18T05:52:50;40.17;;;18.47;;
17915;SDS011;9083;49.156;8.982;2022-12-18T05:55:16;48.40;;;19.57;;
17915;SDS011;9083;49.156;8.982;2022-12-18T05:57:43;48.87;;;21.07;;
17915;SDS011;9083;49.156;8.982;2022-12-18T06:00:10;50.43;;;20.40;;
17915;SDS011;9083;49.156;8.982;2022-12-18T06:02:36;50.37;;;20.87;;
17915;SDS011;9083;49.156;8.982;2022-12-18T06:05:03;65.67;;;26.37;;
17915;SDS011;9083;49.156;8.982;2022-12-18T06:07:31;56.37;;;22.83;;
17915;SDS011;9083;49.156;8.982;2022-12-18T06:09:57;48.83;;;20.30;;
17915;SDS011;9083;49.156;8.982;2022-12-18T06:12:24;47.27;;;19.27;;
17915;SDS011;9083;49.156;8.982;2022-12-18T06:14:50;50.93;;;20.03;;
17915;SDS011;9083;49.156;8.982;2022-12-18T06:17:17;58.80;;;22.27;;
17915;SDS011;9083;49.156;8.982;2022-12-18T06:19:43;54.60;;;23.13;;
17915;SDS011;9083;49.156;8.982;2022-12-18T06:22:10;47.90;;;21.50;;
17915;SDS011;9083;49.156;8.982;2022-12-18T06:24:38;56.90;;;24.17;;
17915;SDS011;9083;49.156;8.982;2022-12-18T06:27:04;48.87;;;20.93;;
17915;SDS011;9083;49.156;8.982;2022-12-18T06:29:31;55.77;;;22.77;;
17915;SDS011;9083;49.156;8.982;2022-12-18T06:31:57;42.27;;;19.43;;
17915;SDS011;9083;49.156;8.982;2022-12-18T06:34:23;44.97;;;20.60;;
17915;SDS011;9083;49.156;8.982;2022-12-18T06:36:50;27.90;;;13.80;;
17915;SDS011;9083;49.156;8.982;2022-12-18T06:39:16;29.33;;;13.77;;
17915;SDS011;9083;49.156;8.982;2022-12-18T06:41:44;23.23;;;12.70;;
17915;SDS011;9083;49.156;8.982;2022-12-18T06:44:11;46.73;;;19.07;;
17915;SDS011;9083;49.156;8.982;2022-12-18T06:46:37;35.53;;;16.73;;
17915;SDS011;9083;49.156;8.982;2022-12-18T06:49:04;33.63;;;15.40;;
17915;SDS011;9083;49.156;8.982;2022-12-18T06:51:30;35.40;;;15.43;;
17915;SDS011;9083;49.156;8.982;2022-12-18T06:53:57;37.30;;;15.30;;
17915;SDS011;9083;49.156;8.982;2022-12-18T06:56:23;48.97;;;20.50;;
17915;SDS011;9083;49.156;8.982;2022-12-18T06:58:51;63.57;;;23.40;;
17915;SDS011;9083;49.156;8.982;2022-12-18T07:01:18;59.03;;;22.53;;
17915;SDS011;9083;49.156;8.982;2022-12-18T07:03:44;51.27;;;21.97;;
17915;SDS011;9083;49.156;8.982;2022-12-18T07:06:15;54.97;;;21.17;;
17915;SDS011;9083;49.156;8.982;2022-12-18T07:08:42;49.70;;;21.10;;
17915;SDS011;9083;49.156;8.982;2022-12-18T07:11:08;42.57;;;19.27;;
17915;SDS011;9083;49.156;8.982;2022-12-18T07:13:35;45.47;;;19.63;;
17915;SDS011;9083;49.156;8.982;2022-12-18T07:16:07;51.43;;;20.23;;
17915;SDS011;9083;49.156;8.982;2022-12-18T07:18:34;52.27;;;20.80;;
17915;SDS011;9083;49.156;8.982;2022-12-18T07:21:03;45.00;;;19.77;;
17915;SDS011;9083;49.156;8.982;2022-12-18T07:23:31;40.40;;;18.40;;
17915;SDS011;9083;49.156;8.982;2022-12-18T07:26:00;43.43;;;21.13;;
17915;SDS011;9083;49.156;8.982;2022-12-18T07:28:26;51.70;;;21.33;;
17915;SDS011;9083;49.156;8.982;2022-12-18T07:30:52;56.00;;;21.83;;
17915;SDS011;9083;49.156;8.982;2022-12-18T07:33:20;45.83;;;20.10;;
17915;SDS011;9083;49.156;8.982;2022-12-18T07:35:47;50.07;;;20.63;;
17915;SDS011;9083;49.156;8.982;2022-12-18T07:38:13;43.00;;;18.23;;
17915;SDS011;9083;49.156;8.982;2022-12-18T07:40:40;47.60;;;19.43;;
17915;SDS011;9083;49.156;8.982;2022-12-18T07:43:06;53.07;;;20.40;;
17915;SDS011;9083;49.156;8.982;2022-12-18T07:45:33;55.77;;;21.40;;
17915;SDS011;9083;49.156;8.982;2022-12-18T07:47:59;52.20;;;21.40;;
17915;SDS011;9083;49.156;8.982;2022-12-18T07:50:27;49.93;;;21.10;;
17915;SDS011;9083;49.156;8.982;2022-12-18T07:52:53;58.80;;;22.63;;
17915;SDS011;9083;49.156;8.982;2022-12-18T07:55:20;45.73;;;20.97;;
17915;SDS011;9083;49.156;8.982;2022-12-18T07:57:46;53.60;;;21.03;;
17915;SDS011;9083;49.156;8.982;2022-12-18T08:00:13;60.80;;;21.97;;
17915;SDS011;9083;49.156;8.982;2022-12-18T08:02:40;53.70;;;21.77;;
17915;SDS011;9083;49.156;8.982;2022-12-18T08:05:06;52.03;;;23.17;;
17915;SDS011;9083;49.156;8.982;2022-12-18T08:07:34;55.83;;;21.07;;
17915;SDS011;9083;49.156;8.982;2022-12-18T08:10:01;41.63;;;18.63;;
17915;SDS011;9083;49.156;8.982;2022-12-18T08:12:27;53.33;;;22.23;;
17915;SDS011;9083;49.156;8.982;2022-12-18T08:14:54;46.97;;;19.53;;
17915;SDS011;9083;49.156;8.982;2022-12-18T08:17:20;49.53;;;20.53;;
17915;SDS011;9083;49.156;8.982;2022-12-18T08:19:47;51.77;;;20.57;;
17915;SDS011;9083;49.156;8.982;2022-12-18T08:22:13;54.73;;;21.40;;
17915;SDS011;9083;49.156;8.982;2022-12-18T08:24:41;56.13;;;20.93;;
17915;SDS011;9083;49.156;8.982;2022-12-18T08:27:07;50.10;;;20.20;;
17915;SDS011;9083;49.156;8.982;2022-12-18T08:29:34;52.30;;;18.27;;
17915;SDS011;9083;49.156;8.982;2022-12-18T08:32:00;47.20;;;19.63;;
17915;SDS011;9083;49.156;8.982;2022-12-18T08:34:27;56.27;;;19.73;;
17915;SDS011;9083;49.156;8.982;2022-12-18T08:36:53;55.57;;;24.37;;
17915;SDS011;9083;49.156;8.982;2022-12-18T08:39:20;49.47;;;18.37;;
17915;SDS011;9083;49.156;8.982;2022-12-18T08:41:48;38.70;;;16.80;;
17915;SDS011;9083;49.156;8.982;2022-12-18T08:44:28;45.93;;;19.43;;
17915;SDS011;9083;49.156;8.982;2022-12-18T08:47:03;51.60;;;22.27;;
17915;SDS011;9083;49.156;8.982;2022-12-18T08:49:30;49.17;;;19.67;;
17915;SDS011;9083;49.156;8.982;2022-12-18T08:51:56;50.83;;;20.10;;
17915;SDS011;9083;49.156;8.982;2022-12-18T08:54:23;43.73;;;20.00;;
17915;SDS011;9083;49.156;8.982;2022-12-18T08:56:51;52.40;;;18.93;;
17915;SDS011;9083;49.156;8.982;2022-12-18T08:59:18;51.20;;;20.80;;
17915;SDS011;9083;49.156;8.982;2022-12-18T09:01:44;48.50;;;18.33;;
17915;SDS011;9083;49.156;8.982;2022-12-18T09:04:11;49.57;;;18.73;;
17915;SDS011;9083;49.156;8.982;2022-12-18T09:06:39;56.07;;;20.27;;
17915;SDS011;9083;49.156;8.982;2022-12-18T09:09:05;57.73;;;23.50;;
17915;SDS011;9083;49.156;8.982;2022-12-18T09:11:32;56.20;;;20.77;;
17915;SDS011;9083;49.156;8.982;2022-12-18T09:14:00;41.67;;;16.77;;
17915;SDS011;9083;49.156;8.982;2022-12-18T09:16:27;48.60;;;20.30;;
17915;SDS011;9083;49.156;8.982;2022-12-18T09:18:54;46.13;;;20.23;;
17915;SDS011;9083;49.156;8.982;2022-12-18T09:21:25;54.30;;;21.93;;
17915;SDS011;9083;49.156;8.982;2022-12-18T09:23:52;55.70;;;23.00;;
17915;SDS011;9083;49.156;8.982;2022-12-18T09:26:19;51.40;;;19.60;;
17915;SDS011;9083;49.156;8.982;2022-12-18T09:28:45;48.20;;;18.60;;
17915;SDS011;9083;49.156;8.982;2022-12-18T09:31:13;49.47;;;22.93;;
17915;SDS011;9083;49.156;8.982;2022-12-18T09:33:40;45.77;;;18.17;;
17915;SDS011;9083;49.156;8.982;2022-12-18T09:36:07;45.73;;;19.77;;
17915;SDS011;9083;49.156;8.982;2022-12-18T09:38:34;49.60;;;20.10;;
17915;SDS011;9083;49.156;8.982;2022-12-18T09:41:03;50.07;;;19.77;;
17915;SDS011;9083;49.156;8.982;2022-12-18T09:43:33;46.37;;;20.93;;
17915;SDS011;9083;49.156;8.982;2022-12-18T09:46:03;45.80;;;19.43;;
17915;SDS011;9083;49.156;8.982;2022-12-18T09:48:34;50.30;;;18.63;;
17915;SDS011;9083;49.156;8.982;2022-12-18T09:51:02;49.87;;;22.03;;
17915;SDS011;9083;49.156;8.982;2022-12-18T09:53:31;49.43;;;19.20;;
17915;SDS011;9083;49.156;8.982;2022-12-18T09:55:58;49.97;;;18.27;;
17915;SDS011;9083;49.156;8.982;2022-12-18T09:58:27;52.67;;;20.30;;
17915;SDS011;9083;49.156;8.982;2022-12-18T10:00:55;47.03;;;20.40;;
17915;SDS011;9083;49.156;8.982;2022-12-18T10:03:21;49.17;;;19.37;;
17915;SDS011;9083;49.156;8.982;2022-12-18T10:05:52;49.43;;;19.17;;
17915;SDS011;9083;49.156;8.982;2022-12-18T10:08:22;55.00;;;20.03;;
17915;SDS011;9083;49.156;8.982;2022-12-18T10:10:52;37.27;;;16.63;;
17915;SDS011;9083;49.156;8.982;2022-12-18T10:13:21;43.40;;;17.10;;
17915;SDS011;9083;49.156;8.982;2022-12-18T10:15:57;36.20;;;14.80;;
17915;SDS011;9083;49.156;8.982;2022-12-18T10:18:27;50.00;;;17.13;;
17915;SDS011;9083;49.156;8.982;2022-12-18T10:20:59;56.43;;;19.67;;
17915;SDS011;9083;49.156;8.982;2022-12-18T10:23:28;54.23;;;19.57;;
17915;SDS011;9083;49.156;8.982;2022-12-18T10:25:59;52.30;;;19.67;;
17915;SDS011;9083;49.156;8.982;2022-12-18T10:28:28;54.83;;;21.23;;
17915;SDS011;9083;49.156;8.982;2022-12-18T10:30:55;57.67;;;20.17;;
17915;SDS011;9083;49.156;8.982;2022-12-18T10:33:22;60.47;;;21.63;;
17915;SDS011;9083;49.156;8.982;2022-12-18T10:35:50;48.03;;;20.00;;
17915;SDS011;9083;49.156;8.982;2022-12-18T10:38:22;46.63;;;18.33;;
17915;SDS011;9083;49.156;8.982;2022-12-18T10:40:49;47.93;;;18.90;;
17915;SDS011;9083;49.156;8.982;2022-12-18T10:43:19;52.97;;;20.23;;
17915;SDS011;9083;49.156;8.982;2022-12-18T10:45:57;39.37;;;16.77;;
17915;SDS011;9083;49.156;8.982;2022-12-18T10:48:24;47.73;;;18.60;;
17915;SDS011;9083;49.156;8.982;2022-12-18T10:50:51;50.57;;;18.23;;
17915;SDS011;9083;49.156;8.982;2022-12-18T10:53:18;58.87;;;19.90;;
17915;SDS011;9083;49.156;8.982;2022-12-18T10:55:47;48.40;;;19.87;;
17915;SDS011;9083;49.156;8.982;2022-12-18T10:58:16;50.23;;;20.57;;
17915;SDS011;9083;49.156;8.982;2022-12-18T11:00:43;51.63;;;19.80;;
17915;SDS011;9083;49.156;8.982;2022-12-18T11:03:28;52.07;;;19.73;;
17915;SDS011;9083;49.156;8.982;2022-12-18T11:06:01;50.43;;;19.13;;
17915;SDS011;9083;49.156;8.982;2022-12-18T11:08:28;62.83;;;24.07;;
17915;SDS011;9083;49.156;8.982;2022-12-18T11:10:55;50.23;;;19.33;;
17915;SDS011;9083;49.156;8.982;2022-12-18T11:13:23;58.17;;;21.33;;
17915;SDS011;9083;49.156;8.982;2022-12-18T11:15:50;59.97;;;23.37;;
17915;SDS011;9083;49.156;8.982;2022-12-18T11:18:17;55.80;;;22.03;;
17915;SDS011;9083;49.156;8.982;2022-12-18T11:20:50;60.03;;;23.10;;
17915;SDS011;9083;49.156;8.982;2022-12-18T11:23:16;51.50;;;18.30;;
17915;SDS011;9083;49.156;8.982;2022-12-18T11:25:50;48.97;;;21.23;;
17915;SDS011;9083;49.156;8.982;2022-12-18T11:28:27;56.77;;;20.53;;
17915;SDS011;9083;49.156;8.982;2022-12-18T11:31:08;57.33;;;19.83;;
17915;SDS011;9083;49.156;8.982;2022-12-18T11:33:35;54.53;;;21.00;;
17915;SDS011;9083;49.156;8.982;2022-12-18T11:36:03;51.27;;;19.17;;
17915;SDS011;9083;49.156;8.982;2022-12-18T11:38:31;49.67;;;18.20;;
17915;SDS011;9083;49.156;8.982;2022-12-18T11:40:58;52.83;;;19.50;;
17915;SDS011;9083;49.156;8.982;2022-12-18T11:43:28;61.27;;;22.47;;
17915;SDS011;9083;49.156;8.982;2022-12-18T11:45:57;57.07;;;19.93;;
17915;SDS011;9083;49.156;8.982;2022-12-18T11:48:25;64.47;;;24.27;;
17915;SDS011;9083;49.156;8.982;2022-12-18T11:50:53;55.30;;;19.60;;
17915;SDS011;9083;49.156;8.982;2022-12-18T11:53:20;58.57;;;21.23;;
17915;SDS011;9083;49.156;8.982;2022-12-18T11:55:49;51.87;;;19.37;;
17915;SDS011;9083;49.156;8.982;2022-12-18T11:58:19;46.90;;;19.50;;
17915;SDS011;9083;49.156;8.982;2022-12-18T12:00:54;52.53;;;21.17;;
17915;SDS011;9083;49.156;8.982;2022-12-18T12:03:27;52.10;;;21.13;;
17915;SDS011;9083;49.156;8.982;2022-12-18T12:05:59;58.27;;;22.67;;
17915;SDS011;9083;49.156;8.982;2022-12-18T12:08:32;63.23;;;22.13;;
17915;SDS011;9083;49.156;8.982;2022-12-18T12:11:03;47.10;;;19.27;;
17915;SDS011;9083;49.156;8.982;2022-12-18T12:13:36;55.57;;;22.03;;
17915;SDS011;9083;49.156;8.982;2022-12-18T12:16:09;59.00;;;22.70;;
17915;SDS011;9083;49.156;8.982;2022-12-18T12:18:41;60.07;;;24.23;;
17915;SDS011;9083;49.156;8.982;2022-12-18T12:21:12;51.97;;;19.43;;
17915;SDS011;9083;49.156;8.982;2022-12-18T12:23:41;53.23;;;20.27;;
17915;SDS011;9083;49.156;8.982;2022-12-18T12:26:12;50.73;;;19.07;;
17915;SDS011;9083;49.156;8.982;2022-12-18T12:28:47;61.50;;;21.50;;
17915;SDS011;9083;49.156;8.982;2022-12-18T12:31:21;44.90;;;18.23;;
17915;SDS011;9083;49.156;8.982;2022-12-18T12:33:55;46.60;;;17.47;;
17915;SDS011;9083;49.156;8.982;2022-12-18T12:36:26;47.57;;;17.60;;
17915;SDS011;9083;49.156;8.982;2022-12-18T12:38:59;50.30;;;20.03;;
17915;SDS011;9083;49.156;8.982;2022-12-18T12:41:27;50.63;;;20.23;;
17915;SDS011;9083;49.156;8.982;2022-12-18T12:44:14;54.90;;;22.40;;
17915;SDS011;9083;49.156;8.982;2022-12-18T12:46:44;52.00;;;20.07;;
17915;SDS011;9083;49.156;8.982;2022-12-18T12:49:12;57.73;;;19.03;;
17915;SDS011;9083;49.156;8.982;2022-12-18T12:51:40;51.70;;;17.60;;
17915;SDS011;9083;49.156;8.982;2022-12-18T12:54:11;58.60;;;19.53;;
17915;SDS011;9083;49.156;8.982;2022-12-18T12:56:40;44.53;;;17.53;;
17915;SDS011;9083;49.156;8.982;2022-12-18T12:59:12;53.77;;;18.40;;
17915;SDS011;9083;49.156;8.982;2022-12-18T13:01:40;50.77;;;18.90;;
17915;SDS011;9083;49.156;8.982;2022-12-18T13:04:12;62.87;;;19.70;;
17915;SDS011;9083;49.156;8.982;2022-12-18T13:06:42;49.87;;;18.07;;
17915;SDS011;9083;49.156;8.982;2022-12-18T13:09:09;55.60;;;19.93;;
17915;SDS011;9083;49.156;8.982;2022-12-18T13:11:37;50.83;;;19.37;;
17915;SDS011;9083;49.156;8.982;2022-12-18T13:14:26;57.10;;;20.80;;
17915;SDS011;9083;49.156;8.982;2022-12-18T13:19:36;60.07;;;19.07;;
17915;SDS011;9083;49.156;8.982;2022-12-18T13:22:02;63.30;;;23.47;;
17915;SDS011;9083;49.156;8.982;2022-12-18T13:24:30;61.53;;;22.27;;
17915;SDS011;9083;49.156;8.982;2022-12-18T13:26:57;60.97;;;21.23;;
17915;SDS011;9083;49.156;8.982;2022-12-18T13:29:40;62.20;;;22.97;;
17915;SDS011;9083;49.156;8.982;2022-12-18T13:32:15;54.67;;;21.17;;
17915;SDS011;9083;49.156;8.982;2022-12-18T13:34:46;54.80;;;20.87;;
17915;SDS011;9083;49.156;8.982;2022-12-18T13:39:57;48.03;;;18.87;;
17915;SDS011;9083;49.156;8.982;2022-12-18T13:45:44;52.53;;;20.47;;
17915;SDS011;9083;49.156;8.982;2022-12-18T13:48:15;46.90;;;17.10;;
17915;SDS011;9083;49.156;8.982;2022-12-18T13:50:43;57.97;;;21.30;;
17915;SDS011;9083;49.156;8.982;2022-12-18T13:53:15;54.43;;;20.60;;
17915;SDS011;9083;49.156;8.982;2022-12-18T13:55:44;55.07;;;21.23;;
17915;SDS011;9083;49.156;8.982;2022-12-18T13:58:11;49.63;;;18.43;;
17915;SDS011;9083;49.156;8.982;2022-12-18T14:00:40;48.17;;;18.10;;
17915;SDS011;9083;49.156;8.982;2022-12-18T14:03:15;54.53;;;20.07;;
17915;SDS011;9083;49.156;8.982;2022-12-18T14:05:44;49.50;;;19.90;;
17915;SDS011;9083;49.156;8.982;2022-12-18T14:08:11;61.77;;;21.70;;
17915;SDS011;9083;49.156;8.982;2022-12-18T14:10:39;56.80;;;20.80;;
17915;SDS011;9083;49.156;8.982;2022-12-18T14:13:10;55.40;;;20.37;;
17915;SDS011;9083;49.156;8.982;2022-12-18T14:15:40;56.37;;;20.07;;
17915;SDS011;9083;49.156;8.982;2022-12-18T14:18:15;61.53;;;21.33;;
17915;SDS011;9083;49.156;8.982;2022-12-18T14:20:45;61.90;;;22.97;;
17915;SDS011;9083;49.156;8.982;2022-12-18T14:23:24;60.50;;;20.57;;
17915;SDS011;9083;49.156;8.982;2022-12-18T14:25:51;50.57;;;18.13;;
17915;SDS011;9083;49.156;8.982;2022-12-18T14:28:18;55.97;;;21.73;;
17915;SDS011;9083;49.156;8.982;2022-12-18T14:30:46;55.53;;;19.37;;
17915;SDS011;9083;49.156;8.982;2022-12-18T14:33:13;56.70;;;19.07;;
17915;SDS011;9083;49.156;8.982;2022-12-18T14:35:41;50.87;;;19.53;;
17915;SDS011;9083;49.156;8.982;2022-12-18T14:38:19;57.60;;;19.20;;
17915;SDS011;9083;49.156;8.982;2022-12-18T14:40:47;49.83;;;18.10;;
17915;SDS011;9083;49.156;8.982;2022-12-18T14:43:13;56.60;;;19.77;;
17915;SDS011;9083;49.156;8.982;2022-12-18T14:45:40;57.20;;;19.77;;
17915;SDS011;9083;49.156;8.982;2022-12-18T14:48:07;49.40;;;18.43;;
17915;SDS011;9083;49.156;8.982;2022-12-18T14:50:34;58.07;;;21.20;;
17915;SDS011;9083;49.156;8.982;2022-12-18T14:53:01;48.57;;;18.83;;